sensor_id;sensor_type;location;lat;lon;timestamp;temperature;humidity
14527;DHT22;7350;51.208;4.238;2022-12-18T00:02:16;-3.40;99.90
14527;DHT22;7350;51.208;4.238;2022-12-18T00:04:43;-3.20;99.90
14527;DHT22;7350;51.208;4.238;2022-12-18T00:07:10;-3.40;99.90
14527;DHT22;7350;51.208;4.238;2022-12-18T00:09:37;-3.50;99.90
14527;DHT22;7350;51.208;4.238;2022-12-18T00:12:04;-3.50;99.90
14527;DHT22;7350;51.208;4.238;2022-12-18T00:14:32;-3.80;99.90
14527;DHT22;7350;51.208;4.238;2022-12-18T00:17:00;-3.70;99.90
14527;DHT22;7350;51.208;4.238;2022-12-18T00:19:27;-3.80;99.90
14527;DHT22;7350;51.208;4.238;2022-12-18T00:21:54;-3.90;99.90
14527;DHT22;7350;51.208;4.238;2022-12-18T00:24:21;-4.10;99.90
14527;DHT22;7350;51.208;4.238;2022-12-18T00:26:48;-4.00;99.90
14527;DHT22;7350;51.208;4.238;2022-12-18T00:29:15;-4.00;99.90
14527;DHT22;7350;51.208;4.238;2022-12-18T00:31:42;-3.90;99.90
14527;DHT22;7350;51.208;4.238;2022-12-18T00:34:12;-4.00;99.90
14527;DHT22;7350;51.208;4.238;2022-12-18T00:36:39;-4.00;99.90
14527;DHT22;7350;51.208;4.238;2022-12-18T00:39:07;-4.00;99.90
14527;DHT22;7350;51.208;4.238;2022-12-18T00:41:34;-3.40;99.90
14527;DHT22;7350;51.208;4.238;2022-12-18T00:44:18;-3.70;99.90
14527;DHT22;7350;51.208;4.238;2022-12-18T00:46:47;-3.80;99.90
14527;DHT22;7350;51.208;4.238;2022-12-18T00:49:16;-3.90;99.90
14527;DHT22;7350;51.208;4.238;2022-12-18T00:51:43;-3.90;99.90
14527;DHT22;7350;51.208;4.238;2022-12-18T00:54:12;-3.80;99.90
14527;DHT22;7350;51.208;4.238;2022-12-18T00:56:40;-3.70;99.90
14527;DHT22;7350;51.208;4.238;2022-12-18T00:59:07;-3.50;99.90
14527;DHT22;7350;51.208;4.238;2022-12-18T01:01:34;-3.30;99.90
14527;DHT22;7350;51.208;4.238;2022-12-18T01:04:01;-3.20;99.90
14527;DHT22;7350;51.208;4.238;2022-12-18T01:06:30;-3.20;99.90
14527;DHT22;7350;51.208;4.238;2022-12-18T01:08:57;-3.10;99.90
14527;DHT22;7350;51.208;4.238;2022-12-18T01:11:24;-3.20;99.90
14527;DHT22;7350;51.208;4.238;2022-12-18T01:13:52;-3.40;99.90
14527;DHT22;7350;51.208;4.238;2022-12-18T01:16:19;-3.50;99.90
14527;DHT22;7350;51.208;4.238;2022-12-18T01:18:46;-3.50;99.90
14527;DHT22;7350;51.208;4.238;2022-12-18T01:21:15;-3.50;99.90
14527;DHT22;7350;51.208;4.238;2022-12-18T01:23:43;-3.40;99.90
14527;DHT22;7350;51.208;4.238;2022-12-18T01:26:12;-3.40;99.90
14527;DHT22;7350;51.208;4.238;2022-12-18T01:28:39;-3.20;99.90
14527;DHT22;7350;51.208;4.238;2022-12-18T01:31:15;-3.30;99.90
14527;DHT22;7350;51.208;4.238;2022-12-18T01:33:43;-3.40;99.90
14527;DHT22;7350;51.208;4.238;2022-12-18T01:36:15;-3.40;99.90
14527;DHT22;7350;51.208;4.238;2022-12-18T01:38:44;-3.40;99.90
14527;DHT22;7350;51.208;4.238;2022-12-18T01:41:11;-3.40;99.90
14527;DHT22;7350;51.208;4.238;2022-12-18T01:43:47;-3.40;99.90
14527;DHT22;7350;51.208;4.238;2022-12-18T01:46:15;-3.00;99.90
14527;DHT22;7350;51.208;4.238;2022-12-18T01:48:44;-3.40;99.90
14527;DHT22;7350;51.208;4.238;2022-12-18T01:51:13;-3.20;99.90
14527;DHT22;7350;51.208;4.238;2022-12-18T01:53:41;-3.30;99.90
14527;DHT22;7350;51.208;4.238;2022-12-18T01:56:12;-3.20;99.90
14527;DHT22;7350;51.208;4.238;2022-12-18T01:58:46;-3.20;99.90
14527;DHT22;7350;51.208;4.238;2022-12-18T02:01:15;-3.00;99.90
14527;DHT22;7350;51.208;4.238;2022-12-18T02:03:42;-3.30;99.90
14527;DHT22;7350;51.208;4.238;2022-12-18T02:06:14;-3.30;99.90
14527;DHT22;7350;51.208;4.238;2022-12-18T02:08:50;-3.20;99.90
14527;DHT22;7350;51.208;4.238;2022-12-18T02:11:27;-3.10;99.90
14527;DHT22;7350;51.208;4.238;2022-12-18T02:14:06;-3.00;99.90
14527;DHT22;7350;51.208;4.238;2022-12-18T02:16:42;-3.20;99.90
14527;DHT22;7350;51.208;4.238;2022-12-18T02:19:21;-3.10;99.90
14527;DHT22;7350;51.208;4.238;2022-12-18T02:21:55;-3.10;99.90
14527;DHT22;7350;51.208;4.238;2022-12-18T02:24:29;-3.20;99.90
14527;DHT22;7350;51.208;4.238;2022-12-18T02:27:01;-3.30;99.90
14527;DHT22;7350;51.208;4.238;2022-12-18T02:29:33;-3.20;99.90
14527;DHT22;7350;51.208;4.238;2022-12-18T02:32:02;-3.40;99.90
14527;DHT22;7350;51.208;4.238;2022-12-18T02:34:33;-3.40;99.90
14527;DHT22;7350;51.208;4.238;2022-12-18T02:37:03;-3.40;99.90
14527;DHT22;7350;51.208;4.238;2022-12-18T02:39:34;-3.40;99.90
14527;DHT22;7350;51.208;4.238;2022-12-18T02:42:03;-3.30;99.90
14527;DHT22;7350;51.208;4.238;2022-12-18T02:44:33;-3.30;99.90
14527;DHT22;7350;51.208;4.238;2022-12-18T02:47:01;-3.40;99.90
14527;DHT22;7350;51.208;4.238;2022-12-18T02:49:36;-3.60;99.90
14527;DHT22;7350;51.208;4.238;2022-12-18T02:52:11;-3.60;99.90
14527;DHT22;7350;51.208;4.238;2022-12-18T02:54:55;-3.60;99.90
14527;DHT22;7350;51.208;4.238;2022-12-18T02:57:33;-3.60;99.90
14527;DHT22;7350;51.208;4.238;2022-12-18T03:00:04;-3.40;99.90
14527;DHT22;7350;51.208;4.238;2022-12-18T03:02:38;-3.50;99.90
14527;DHT22;7350;51.208;4.238;2022-12-18T03:05:11;-3.40;99.90
14527;DHT22;7350;51.208;4.238;2022-12-18T03:07:42;-3.30;99.90
14527;DHT22;7350;51.208;4.238;2022-12-18T03:10:14;-3.30;99.90
14527;DHT22;7350;51.208;4.238;2022-12-18T03:12:49;-3.60;99.90
14527;DHT22;7350;51.208;4.238;2022-12-18T03:15:20;-3.50;99.90
14527;DHT22;7350;51.208;4.238;2022-12-18T03:17:52;-3.40;99.90
14527;DHT22;7350;51.208;4.238;2022-12-18T03:20:22;-3.60;99.90
14527;DHT22;7350;51.208;4.238;2022-12-18T03:22:53;-3.60;99.90
14527;DHT22;7350;51.208;4.238;2022-12-18T03:25:22;-3.70;99.90
14527;DHT22;7350;51.208;4.238;2022-12-18T03:27:53;-3.60;99.90
14527;DHT22;7350;51.208;4.238;2022-12-18T03:30:22;-3.60;99.90
14527;DHT22;7350;51.208;4.238;2022-12-18T03:32:53;-3.50;99.90
14527;DHT22;7350;51.208;4.238;2022-12-18T03:35:26;-3.50;99.90
14527;DHT22;7350;51.208;4.238;2022-12-18T03:37:55;-3.20;99.90
14527;DHT22;7350;51.208;4.238;2022-12-18T03:40:27;-3.20;99.90
14527;DHT22;7350;51.208;4.238;2022-12-18T03:43:00;-3.20;99.90
14527;DHT22;7350;51.208;4.238;2022-12-18T03:45:32;-3.20;99.90
14527;DHT22;7350;51.208;4.238;2022-12-18T03:48:04;-3.30;99.90
14527;DHT22;7350;51.208;4.238;2022-12-18T03:50:42;-3.40;99.90
14527;DHT22;7350;51.208;4.238;2022-12-18T03:53:24;-3.30;99.90
14527;DHT22;7350;51.208;4.238;2022-12-18T03:55:54;-3.50;99.90
14527;DHT22;7350;51.208;4.238;2022-12-18T03:58:25;-3.60;99.90
14527;DHT22;7350;51.208;4.238;2022-12-18T04:00:56;-3.80;99.90
14527;DHT22;7350;51.208;4.238;2022-12-18T04:03:23;-3.80;99.90
14527;DHT22;7350;51.208;4.238;2022-12-18T04:05:51;-3.70;99.90
14527;DHT22;7350;51.208;4.238;2022-12-18T04:08:20;-3.70;99.90
14527;DHT22;7350;51.208;4.238;2022-12-18T04:10:47;-3.70;99.90
14527;DHT22;7350;51.208;4.238;2022-12-18T04:13:23;-3.70;99.90
14527;DHT22;7350;51.208;4.238;2022-12-18T04:15:51;-3.60;99.90
14527;DHT22;7350;51.208;4.238;2022-12-18T04:18:18;-3.50;99.90
14527;DHT22;7350;51.208;4.238;2022-12-18T04:20:44;-3.40;99.90
14527;DHT22;7350;51.208;4.238;2022-12-18T04:23:12;-3.40;99.90
14527;DHT22;7350;51.208;4.238;2022-12-18T04:25:39;-3.20;99.90
14527;DHT22;7350;51.208;4.238;2022-12-18T04:28:06;-3.20;99.90
14527;DHT22;7350;51.208;4.238;2022-12-18T04:30:34;-3.10;99.90
14527;DHT22;7350;51.208;4.238;2022-12-18T04:33:01;-3.10;99.90
14527;DHT22;7350;51.208;4.238;2022-12-18T04:35:28;-3.40;99.90
14527;DHT22;7350;51.208;4.238;2022-12-18T04:37:55;-3.40;99.90
14527;DHT22;7350;51.208;4.238;2022-12-18T04:40:22;-3.30;99.90
14527;DHT22;7350;51.208;4.238;2022-12-18T04:42:49;-3.50;99.90
14527;DHT22;7350;51.208;4.238;2022-12-18T04:45:16;-3.30;99.90
14527;DHT22;7350;51.208;4.238;2022-12-18T04:47:44;-3.30;99.90
14527;DHT22;7350;51.208;4.238;2022-12-18T04:50:11;-3.20;99.90
14527;DHT22;7350;51.208;4.238;2022-12-18T04:52:38;-3.10;99.90
14527;DHT22;7350;51.208;4.238;2022-12-18T04:55:06;-3.00;99.90
14527;DHT22;7350;51.208;4.238;2022-12-18T04:57:33;-2.90;99.90
14527;DHT22;7350;51.208;4.238;2022-12-18T05:00:00;-2.90;99.90
14527;DHT22;7350;51.208;4.238;2022-12-18T05:02:27;-2.80;99.90
14527;DHT22;7350;51.208;4.238;2022-12-18T05:04:55;-3.10;99.90
14527;DHT22;7350;51.208;4.238;2022-12-18T05:07:22;-3.30;99.90
14527;DHT22;7350;51.208;4.238;2022-12-18T05:09:49;-3.30;99.90
14527;DHT22;7350;51.208;4.238;2022-12-18T05:12:16;-3.40;99.90
14527;DHT22;7350;51.208;4.238;2022-12-18T05:14:43;-3.10;99.90
14527;DHT22;7350;51.208;4.238;2022-12-18T05:17:10;-3.20;99.90
14527;DHT22;7350;51.208;4.238;2022-12-18T05:19:38;-3.30;99.90
14527;DHT22;7350;51.208;4.238;2022-12-18T05:22:07;-3.50;99.90
14527;DHT22;7350;51.208;4.238;2022-12-18T05:24:33;-3.50;99.90
14527;DHT22;7350;51.208;4.238;2022-12-18T05:27:01;-3.60;99.90
14527;DHT22;7350;51.208;4.238;2022-12-18T05:29:28;-3.60;99.90
14527;DHT22;7350;51.208;4.238;2022-12-18T05:31:54;-3.70;99.90
14527;DHT22;7350;51.208;4.238;2022-12-18T05:34:22;-3.80;99.90
14527;DHT22;7350;51.208;4.238;2022-12-18T05:36:49;-3.70;99.90
14527;DHT22;7350;51.208;4.238;2022-12-18T05:39:17;-4.00;99.90
14527;DHT22;7350;51.208;4.238;2022-12-18T05:41:44;-4.20;99.90
14527;DHT22;7350;51.208;4.238;2022-12-18T05:44:11;-4.20;99.90
14527;DHT22;7350;51.208;4.238;2022-12-18T05:46:40;-4.20;99.90
14527;DHT22;7350;51.208;4.238;2022-12-18T05:49:07;-4.10;99.90
14527;DHT22;7350;51.208;4.238;2022-12-18T05:51:34;-4.00;99.90
14527;DHT22;7350;51.208;4.238;2022-12-18T05:54:01;-3.80;99.90
14527;DHT22;7350;51.208;4.238;2022-12-18T05:56:30;-4.00;99.90
14527;DHT22;7350;51.208;4.238;2022-12-18T05:58:57;-3.90;99.90
14527;DHT22;7350;51.208;4.238;2022-12-18T06:01:26;-3.80;99.90
14527;DHT22;7350;51.208;4.238;2022-12-18T06:03:53;-3.90;99.90
14527;DHT22;7350;51.208;4.238;2022-12-18T06:06:23;-4.00;99.90
14527;DHT22;7350;51.208;4.238;2022-12-18T06:08:51;-4.00;99.90
14527;DHT22;7350;51.208;4.238;2022-12-18T06:11:20;-3.90;99.90
14527;DHT22;7350;51.208;4.238;2022-12-18T06:13:51;-3.80;99.90
14527;DHT22;7350;51.208;4.238;2022-12-18T06:16:18;-3.70;99.90
14527;DHT22;7350;51.208;4.238;2022-12-18T06:18:45;-3.60;99.90
14527;DHT22;7350;51.208;4.238;2022-12-18T06:21:12;-3.30;99.90
14527;DHT22;7350;51.208;4.238;2022-12-18T06:23:39;-3.40;99.90
14527;DHT22;7350;51.208;4.238;2022-12-18T06:26:09;-3.60;99.90
14527;DHT22;7350;51.208;4.238;2022-12-18T06:28:37;-3.60;99.90
14527;DHT22;7350;51.208;4.238;2022-12-18T06:31:06;-3.90;99.90
14527;DHT22;7350;51.208;4.238;2022-12-18T06:33:34;-4.00;99.90
14527;DHT22;7350;51.208;4.238;2022-12-18T06:36:03;-3.80;99.90
14527;DHT22;7350;51.208;4.238;2022-12-18T06:38:31;-3.50;99.90
14527;DHT22;7350;51.208;4.238;2022-12-18T06:40:58;-3.60;99.90
14527;DHT22;7350;51.208;4.238;2022-12-18T06:43:25;-3.70;99.90
14527;DHT22;7350;51.208;4.238;2022-12-18T06:45:58;-3.60;99.90
14527;DHT22;7350;51.208;4.238;2022-12-18T06:48:27;-3.70;99.90
14527;DHT22;7350;51.208;4.238;2022-12-18T06:50:54;-3.60;99.90
14527;DHT22;7350;51.208;4.238;2022-12-18T06:53:21;-3.70;99.90
14527;DHT22;7350;51.208;4.238;2022-12-18T06:55:48;-3.60;99.90
14527;DHT22;7350;51.208;4.238;2022-12-18T06:58:15;-3.70;99.90
14527;DHT22;7350;51.208;4.238;2022-12-18T07:00:42;-3.70;99.90
14527;DHT22;7350;51.208;4.238;2022-12-18T07:03:10;-3.80;99.90
14527;DHT22;7350;51.208;4.238;2022-12-18T07:05:41;-3.90;99.90
14527;DHT22;7350;51.208;4.238;2022-12-18T07:08:08;-3.80;99.90
14527;DHT22;7350;51.208;4.238;2022-12-18T07:10:41;-3.90;99.90
14527;DHT22;7350;51.208;4.238;2022-12-18T07:13:08;-4.10;99.90
14527;DHT22;7350;51.208;4.238;2022-12-18T07:15:35;-4.00;99.90
14527;DHT22;7350;51.208;4.238;2022-12-18T07:18:03;-4.00;99.90
14527;DHT22;7350;51.208;4.238;2022-12-18T07:20:30;-4.00;99.90
14527;DHT22;7350;51.208;4.238;2022-12-18T07:22:58;-4.00;99.90
14527;DHT22;7350;51.208;4.238;2022-12-18T07:25:25;-3.90;99.90
14527;DHT22;7350;51.208;4.238;2022-12-18T07:27:52;-3.80;99.90
14527;DHT22;7350;51.208;4.238;2022-12-18T07:30:19;-3.70;99.90
14527;DHT22;7350;51.208;4.238;2022-12-18T07:32:47;-3.60;99.90
14527;DHT22;7350;51.208;4.238;2022-12-18T07:35:14;-3.50;99.90
14527;DHT22;7350;51.208;4.238;2022-12-18T07:37:41;-3.60;99.90
14527;DHT22;7350;51.208;4.238;2022-12-18T07:40:11;-3.50;99.90
14527;DHT22;7350;51.208;4.238;2022-12-18T07:42:38;-3.60;99.90
14527;DHT22;7350;51.208;4.238;2022-12-18T07:45:05;-3.50;99.90
14527;DHT22;7350;51.208;4.238;2022-12-18T07:47:34;-3.30;99.90
14527;DHT22;7350;51.208;4.238;2022-12-18T07:50:02;-3.30;99.90
14527;DHT22;7350;51.208;4.238;2022-12-18T07:52:29;-3.40;99.90
14527;DHT22;7350;51.208;4.238;2022-12-18T07:54:56;-3.60;99.90
14527;DHT22;7350;51.208;4.238;2022-12-18T07:57:24;-3.60;99.90
14527;DHT22;7350;51.208;4.238;2022-12-18T07:59:51;-3.60;99.90
14527;DHT22;7350;51.208;4.238;2022-12-18T08:02:18;-3.60;99.90
14527;DHT22;7350;51.208;4.238;2022-12-18T08:04:45;-3.50;99.90
14527;DHT22;7350;51.208;4.238;2022-12-18T08:07:13;-3.60;99.90
14527;DHT22;7350;51.208;4.238;2022-12-18T08:09:40;-3.50;99.90
14527;DHT22;7350;51.208;4.238;2022-12-18T08:12:07;-3.80;99.90
14527;DHT22;7350;51.208;4.238;2022-12-18T08:14:35;-3.80;99.90
14527;DHT22;7350;51.208;4.238;2022-12-18T08:17:02;-3.70;99.90
14527;DHT22;7350;51.208;4.238;2022-12-18T08:19:29;-3.60;99.90
14527;DHT22;7350;51.208;4.238;2022-12-18T08:21:56;-3.60;99.90
14527;DHT22;7350;51.208;4.238;2022-12-18T08:24:23;-3.40;99.90
14527;DHT22;7350;51.208;4.238;2022-12-18T08:26:51;-3.30;99.90
14527;DHT22;7350;51.208;4.238;2022-12-18T08:29:27;-3.40;99.90
14527;DHT22;7350;51.208;4.238;2022-12-18T08:31:55;-3.50;99.90
14527;DHT22;7350;51.208;4.238;2022-12-18T08:34:22;-3.60;99.90
14527;DHT22;7350;51.208;4.238;2022-12-18T08:36:49;-3.40;99.90
14527;DHT22;7350;51.208;4.238;2022-12-18T08:39:16;-3.20;99.90
14527;DHT22;7350;51.208;4.238;2022-12-18T08:41:43;-3.00;99.90
14527;DHT22;7350;51.208;4.238;2022-12-18T08:44:30;-2.70;99.90
14527;DHT22;7350;51.208;4.238;2022-12-18T08:47:07;-2.80;99.90
14527;DHT22;7350;51.208;4.238;2022-12-18T08:49:35;-2.80;99.90
14527;DHT22;7350;51.208;4.238;2022-12-18T08:52:02;-2.80;99.90
14527;DHT22;7350;51.208;4.238;2022-12-18T08:54:29;-2.70;99.90
14527;DHT22;7350;51.208;4.238;2022-12-18T08:56:56;-2.60;99.90
14527;DHT22;7350;51.208;4.238;2022-12-18T08:59:23;-2.70;99.90
14527;DHT22;7350;51.208;4.238;2022-12-18T09:01:50;-2.50;99.90
14527;DHT22;7350;51.208;4.238;2022-12-18T09:04:21;-2.50;99.90
14527;DHT22;7350;51.208;4.238;2022-12-18T09:06:48;-2.40;99.90
14527;DHT22;7350;51.208;4.238;2022-12-18T09:09:15;-2.20;99.90
14527;DHT22;7350;51.208;4.238;2022-12-18T09:11:42;-2.20;99.90
14527;DHT22;7350;51.208;4.238;2022-12-18T09:14:10;-2.00;99.90
14527;DHT22;7350;51.208;4.238;2022-12-18T09:16:37;-2.10;99.90
14527;DHT22;7350;51.208;4.238;2022-12-18T09:19:05;-2.10;99.90
14527;DHT22;7350;51.208;4.238;2022-12-18T09:21:34;-1.90;99.90
14527;DHT22;7350;51.208;4.238;2022-12-18T09:24:05;-1.90;99.90
14527;DHT22;7350;51.208;4.238;2022-12-18T09:26:32;-1.80;99.90
14527;DHT22;7350;51.208;4.238;2022-12-18T09:28:59;-1.90;99.90
14527;DHT22;7350;51.208;4.238;2022-12-18T09:31:26;-1.80;99.90
14527;DHT22;7350;51.208;4.238;2022-12-18T09:33:55;-1.60;99.90
14527;DHT22;7350;51.208;4.238;2022-12-18T09:36:22;-1.70;99.90
14527;DHT22;7350;51.208;4.238;2022-12-18T09:38:50;-1.70;99.90
14527;DHT22;7350;51.208;4.238;2022-12-18T09:41:32;-1.80;99.90
14527;DHT22;7350;51.208;4.238;2022-12-18T09:44:02;-1.70;99.90
14527;DHT22;7350;51.208;4.238;2022-12-18T09:46:34;-1.70;99.90
14527;DHT22;7350;51.208;4.238;2022-12-18T09:49:05;-1.80;99.90
14527;DHT22;7350;51.208;4.238;2022-12-18T09:51:39;-1.70;99.90
14527;DHT22;7350;51.208;4.238;2022-12-18T09:54:12;-1.80;99.90
14527;DHT22;7350;51.208;4.238;2022-12-18T09:56:42;-1.90;99.90
14527;DHT22;7350;51.208;4.238;2022-12-18T09:59:18;-2.00;99.90
14527;DHT22;7350;51.208;4.238;2022-12-18T10:01:46;-2.00;99.90
14527;DHT22;7350;51.208;4.238;2022-12-18T10:04:13;-1.90;99.90
14527;DHT22;7350;51.208;4.238;2022-12-18T10:06:46;-2.00;99.90
14527;DHT22;7350;51.208;4.238;2022-12-18T10:09:24;-2.00;99.90
14527;DHT22;7350;51.208;4.238;2022-12-18T10:11:59;-2.00;99.90
14527;DHT22;7350;51.208;4.238;2022-12-18T10:14:35;-2.10;99.90
14527;DHT22;7350;51.208;4.238;2022-12-18T10:17:14;-2.10;99.90
14527;DHT22;7350;51.208;4.238;2022-12-18T10:19:49;-2.10;99.90
14527;DHT22;7350;51.208;4.238;2022-12-18T10:22:38;-2.00;99.90
14527;DHT22;7350;51.208;4.238;2022-12-18T10:25:18;-1.70;99.90
14527;DHT22;7350;51.208;4.238;2022-12-18T10:27:47;-1.80;99.90
14527;DHT22;7350;51.208;4.238;2022-12-18T10:30:19;-1.80;99.90
14527;DHT22;7350;51.208;4.238;2022-12-18T10:32:47;-1.80;99.90
14527;DHT22;7350;51.208;4.238;2022-12-18T10:35:18;-1.80;99.90
14527;DHT22;7350;51.208;4.238;2022-12-18T10:38:07;-1.70;99.90
14527;DHT22;7350;51.208;4.238;2022-12-18T10:40:53;-1.50;99.90
14527;DHT22;7350;51.208;4.238;2022-12-18T10:43:24;-1.30;99.90
14527;DHT22;7350;51.208;4.238;2022-12-18T10:46:04;-1.30;99.90
14527;DHT22;7350;51.208;4.238;2022-12-18T10:48:34;-1.20;99.90
14527;DHT22;7350;51.208;4.238;2022-12-18T10:51:02;-1.20;99.90
14527;DHT22;7350;51.208;4.238;2022-12-18T10:53:31;-1.10;99.90
14527;DHT22;7350;51.208;4.238;2022-12-18T10:56:03;-0.80;99.90
14527;DHT22;7350;51.208;4.238;2022-12-18T10:58:32;-0.80;99.90
14527;DHT22;7350;51.208;4.238;2022-12-18T11:01:08;-0.90;99.90
14527;DHT22;7350;51.208;4.238;2022-12-18T11:03:38;-0.80;99.90
14527;DHT22;7350;51.208;4.238;2022-12-18T11:06:07;-0.80;99.90
14527;DHT22;7350;51.208;4.238;2022-12-18T11:08:35;-0.90;99.90
14527;DHT22;7350;51.208;4.238;2022-12-18T11:11:06;-1.00;99.90
14527;DHT22;7350;51.208;4.238;2022-12-18T11:13:34;-0.90;99.90
14527;DHT22;7350;51.208;4.238;2022-12-18T11:16:01;-0.80;99.90
14527;DHT22;7350;51.208;4.238;2022-12-18T11:18:30;-0.80;99.90
14527;DHT22;7350;51.208;4.238;2022-12-18T11:21:00;-0.80;99.90
14527;DHT22;7350;51.208;4.238;2022-12-18T11:23:33;-0.70;99.90
14527;DHT22;7350;51.208;4.238;2022-12-18T11:26:03;-0.70;99.90
14527;DHT22;7350;51.208;4.238;2022-12-18T11:28:39;-0.60;99.90
14527;DHT22;7350;51.208;4.238;2022-12-18T11:31:24;-0.60;99.90
14527;DHT22;7350;51.208;4.238;2022-12-18T11:34:05;-0.60;99.90
14527;DHT22;7350;51.208;4.238;2022-12-18T11:36:39;-0.60;99.90
14527;DHT22;7350;51.208;4.238;2022-12-18T11:39:14;-0.50;99.90
14527;DHT22;7350;51.208;4.238;2022-12-18T11:41:49;-0.60;99.90
14527;DHT22;7350;51.208;4.238;2022-12-18T11:44:43;-0.60;99.90
14527;DHT22;7350;51.208;4.238;2022-12-18T11:47:20;-0.50;99.90
14527;DHT22;7350;51.208;4.238;2022-12-18T11:49:49;-0.40;99.90
14527;DHT22;7350;51.208;4.238;2022-12-18T11:52:18;-0.50;99.90
14527;DHT22;7350;51.208;4.238;2022-12-18T11:54:51;-0.60;99.90
14527;DHT22;7350;51.208;4.238;2022-12-18T11:57:29;-0.60;99.90
14527;DHT22;7350;51.208;4.238;2022-12-18T12:00:04;-0.60;99.90
14527;DHT22;7350;51.208;4.238;2022-12-18T12:02:52;-0.70;99.90
14527;DHT22;7350;51.208;4.238;2022-12-18T12:05:37;-0.80;99.90
14527;DHT22;7350;51.208;4.238;2022-12-18T12:08:13;-0.90;99.90
14527;DHT22;7350;51.208;4.238;2022-12-18T12:10:50;-0.50;99.90
14527;DHT22;7350;51.208;4.238;2022-12-18T12:13:33;-0.30;99.90
14527;DHT22;7350;51.208;4.238;2022-12-18T12:16:13;-0.20;99.90
14527;DHT22;7350;51.208;4.238;2022-12-18T12:19:02;-0.40;99.90
14527;DHT22;7350;51.208;4.238;2022-12-18T12:21:37;-0.40;99.90
14527;DHT22;7350;51.208;4.238;2022-12-18T12:24:14;-0.30;99.90
14527;DHT22;7350;51.208;4.238;2022-12-18T12:26:50;-0.30;99.90
14527;DHT22;7350;51.208;4.238;2022-12-18T12:29:32;-0.30;99.90
14527;DHT22;7350;51.208;4.238;2022-12-18T12:32:15;-0.20;99.90
14527;DHT22;7350;51.208;4.238;2022-12-18T12:34:55;-0.40;99.90
14527;DHT22;7350;51.208;4.238;2022-12-18T12:37:32;-0.30;99.90
14527;DHT22;7350;51.208;4.238;2022-12-18T12:40:04;-0.10;99.90
14527;DHT22;7350;51.208;4.238;2022-12-18T12:42:34;0.10;99.90
14527;DHT22;7350;51.208;4.238;2022-12-18T12:45:34;0.00;99.90
14527;DHT22;7350;51.208;4.238;2022-12-18T12:48:06;-0.10;99.90
14527;DHT22;7350;51.208;4.238;2022-12-18T12:50:38;-0.10;99.90
14527;DHT22;7350;51.208;4.238;2022-12-18T12:53:08;-0.20;99.90
14527;DHT22;7350;51.208;4.238;2022-12-18T12:55:36;-0.20;99.90
14527;DHT22;7350;51.208;4.238;2022-12-18T12:58:08;-0.10;99.90
14527;DHT22;7350;51.208;4.238;2022-12-18T13:00:46;0.00;99.90
14527;DHT22;7350;51.208;4.238;2022-12-18T13:03:27;0.10;99.90
14527;DHT22;7350;51.208;4.238;2022-12-18T13:05:58;-0.10;99.90
14527;DHT22;7350;51.208;4.238;2022-12-18T13:08:28;-0.10;99.90
14527;DHT22;7350;51.208;4.238;2022-12-18T13:10:56;-0.10;99.90
14527;DHT22;7350;51.208;4.238;2022-12-18T13:13:51;0.10;99.90
14527;DHT22;7350;51.208;4.238;2022-12-18T13:16:21;0.10;99.90
14527;DHT22;7350;51.208;4.238;2022-12-18T13:18:49;0.20;99.90
14527;DHT22;7350;51.208;4.238;2022-12-18T13:21:21;0.30;99.90
14527;DHT22;7350;51.208;4.238;2022-12-18T13:23:50;0.40;99.90
14527;DHT22;7350;51.208;4.238;2022-12-18T13:26:31;0.30;99.90
14527;DHT22;7350;51.208;4.238;2022-12-18T13:29:00;0.30;99.90
14527;DHT22;7350;51.208;4.238;2022-12-18T13:34:42;0.20;99.90
14527;DHT22;7350;51.208;4.238;2022-12-18T13:37:40;0.30;99.90
14527;DHT22;7350;51.208;4.238;2022-12-18T13:43:27;0.40;99.90
14527;DHT22;7350;51.208;4.238;2022-12-18T13:46:22;0.40;99.90
14527;DHT22;7350;51.208;4.238;2022-12-18T13:49:01;0.30;99.90
14527;DHT22;7350;51.208;4.238;2022-12-18T13:51:33;0.40;99.90
14527;DHT22;7350;51.208;4.238;2022-12-18T13:54:02;0.50;99.90
14527;DHT22;7350;51.208;4.238;2022-12-18T13:56:33;0.70;99.90
14527;DHT22;7350;51.208;4.238;2022-12-18T13:59:09;0.70;99.90
14527;DHT22;7350;51.208;4.238;2022-12-18T14:01:42;0.70;99.90
14527;DHT22;7350;51.208;4.238;2022-12-18T14:04:10;0.70;99.90
14527;DHT22;7350;51.208;4.238;2022-12-18T14:06:39;0.70;99.90
14527;DHT22;7350;51.208;4.238;2022-12-18T14:09:13;0.80;99.90
14527;DHT22;7350;51.208;4.238;2022-12-18T14:11:40;0.60;99.90
14527;DHT22;7350;51.208;4.238;2022-12-18T14:14:07;0.70;99.90
14527;DHT22;7350;51.208;4.238;2022-12-18T14:16:35;0.80;99.90
14527;DHT22;7350;51.208;4.238;2022-12-18T14:19:03;0.60;99.90
14527;DHT22;7350;51.208;4.238;2022-12-18T14:21:30;0.50;99.90
14527;DHT22;7350;51.208;4.238;2022-12-18T14:24:14;0.80;99.90
14527;DHT22;7350;51.208;4.238;2022-12-18T14:26:42;0.60;99.90
14527;DHT22;7350;51.208;4.238;2022-12-18T14:29:21;0.70;99.90
14527;DHT22;7350;51.208;4.238;2022-12-18T14:32:04;0.60;99.90
14527;DHT22;7350;51.208;4.238;2022-12-18T14:34:31;0.50;99.90
14527;DHT22;7350;51.208;4.238;2022-12-18T14:36:58;0.40;99.90
14527;DHT22;7350;51.208;4.238;2022-12-18T14:39:26;0.40;99.90
14527;DHT22;7350;51.208;4.238;2022-12-18T14:41:53;0.20;99.90
14527;DHT22;7350;51.208;4.238;2022-12-18T14:44:20;0.20;99.90
14527;DHT22;7350;51.208;4.238;2022-12-18T14:46:49;0.10;99.90
14527;DHT22;7350;51.208;4.238;2022-12-18T14:49:23;0.10;99.90
14527;DHT22;7350;51.208;4.238;2022-12-18T14:51:53;0.10;99.90
14527;DHT22;7350;51.208;4.238;2022-12-18T14:54:22;0.10;99.90
14527;DHT22;7350;51.208;4.238;2022-12-18T14:56:57;0.00;99.90
14527;DHT22;7350;51.208;4.238;2022-12-18T14:59:27;0.10;99.90
14527;DHT22;7350;51.208;4.238;2022-12-18T15:02:03;0.20;99.90
14527;DHT22;7350;51.208;4.238;2022-12-18T15:04:33;0.20;99.90
14527;DHT22;7350;51.208;4.238;2022-12-18T15:07:08;0.20;99.90
14527;DHT22;7350;51.208;4.238;2022-12-18T15:09:37;0.50;99.90
14527;DHT22;7350;51.208;4.238;2022-12-18T15:12:16;0.40;99.90
14527;DHT22;7350;51.208;4.238;2022-12-18T15:14:46;0.60;99.90
14527;DHT22;7350;51.208;4.238;2022-12-18T15:17:17;0.70;99.90
14527;DHT22;7350;51.208;4.238;2022-12-18T15:19:45;0.70;99.90
14527;DHT22;7350;51.208;4.238;2022-12-18T15:22:25;0.60;99.90
14527;DHT22;7350;51.208;4.238;2022-12-18T15:24:53;0.60;99.90
14527;DHT22;7350;51.208;4.238;2022-12-18T15:27:27;0.60;99.90
14527;DHT22;7350;51.208;4.238;2022-12-18T15:30:17;0.60;99.90
14527;DHT22;7350;51.208;4.238;2022-12-18T15:32:44;0.60;99.90
14527;DHT22;7350;51.208;4.238;2022-12-18T15:35:14;0.60;99.90
14527;DHT22;7350;51.208;4.238;2022-12-18T15:37:42;0.70;99.90
14527;DHT22;7350;51.208;4.238;2022-12-18T15:40:12;0.60;99.90
14527;DHT22;7350;51.208;4.238;2022-12-18T15:42:41;0.60;99.90
14527;DHT22;7350;51.208;4.238;2022-12-18T15:45:26;0.80;99.90
14527;DHT22;7350;51.208;4.238;2022-12-18T15:47:53;0.80;99.90
14527;DHT22;7350;51.208;4.238;2022-12-18T15:50:20;0.70;99.90
14527;DHT22;7350;51.208;4.238;2022-12-18T15:52:49;0.60;99.90
14527;DHT22;7350;51.208;4.238;2022-12-18T15:55:19;0.70;99.90
14527;DHT22;7350;51.208;4.238;2022-12-18T15:58:05;0.80;99.90
14527;DHT22;7350;51.208;4.238;2022-12-18T16:00:34;0.90;99.90
14527;DHT22;7350;51.208;4.238;2022-12-18T16:03:01;0.90;99.90
14527;DHT22;7350;51.208;4.238;2022-12-18T16:05:29;0.90;99.90
14527;DHT22;7350;51.208;4.238;2022-12-18T16:07:57;0.90;99.90
14527;DHT22;7350;51.208;4.238;2022-12-18T16:10:24;0.80;99.90
14527;DHT22;7350;51.208;4.238;2022-12-18T16:12:52;0.90;99.90
14527;DHT22;7350;51.208;4.238;2022-12-18T16:15:20;0.90;99.90
14527;DHT22;7350;51.208;4.238;2022-12-18T16:17:47;0.90;99.90
14527;DHT22;7350;51.208;4.238;2022-12-18T16:20:15;1.00;99.90